sensor_id;sensor_type;location;lat;lon;timestamp;temperature;humidity
7562;DHT22;3822;48.784;9.174;2023-08-12T00:00:00;26.00;77.50
7562;DHT22;3822;48.784;9.174;2023-08-12T00:02:33;26.00;77.70
7562;DHT22;3822;48.784;9.174;2023-08-12T00:05:02;26.00;78.10
7562;DHT22;3822;48.784;9.174;2023-08-12T00:07:36;26.00;78.30
7562;DHT22;3822;48.784;9.174;2023-08-12T00:10:06;25.90;78.40
7562;DHT22;3822;48.784;9.174;2023-08-12T00:12:36;25.90;78.70
7562;DHT22;3822;48.784;9.174;2023-08-12T00:15:06;25.90;79.00
7562;DHT22;3822;48.784;9.174;2023-08-12T00:17:36;25.90;79.20
7562;DHT22;3822;48.784;9.174;2023-08-12T00:20:09;25.80;79.40
7562;DHT22;3822;48.784;9.174;2023-08-12T00:22:37;25.80;79.60
7562;DHT22;3822;48.784;9.174;2023-08-12T00:25:06;25.80;79.90
7562;DHT22;3822;48.784;9.174;2023-08-12T00:27:33;25.80;80.10
7562;DHT22;3822;48.784;9.174;2023-08-12T00:30:12;25.70;80.30
7562;DHT22;3822;48.784;9.174;2023-08-12T00:32:38;25.70;80.50
7562;DHT22;3822;48.784;9.174;2023-08-12T00:35:14;25.70;80.80
7562;DHT22;3822;48.784;9.174;2023-08-12T00:37:45;25.70;81.10
7562;DHT22;3822;48.784;9.174;2023-08-12T00:40:12;25.60;81.30
7562;DHT22;3822;48.784;9.174;2023-08-12T00:42:39;25.50;81.40
7562;DHT22;3822;48.784;9.174;2023-08-12T00:45:11;25.50;81.50
7562;DHT22;3822;48.784;9.174;2023-08-12T00:47:45;25.50;81.80
7562;DHT22;3822;48.784;9.174;2023-08-12T00:50:11;25.50;82.00
7562;DHT22;3822;48.784;9.174;2023-08-12T00:52:45;25.50;82.20
7562;DHT22;3822;48.784;9.174;2023-08-12T00:55:11;25.40;82.30
7562;DHT22;3822;48.784;9.174;2023-08-12T00:57:38;25.40;82.50
7562;DHT22;3822;48.784;9.174;2023-08-12T01:00:07;25.40;82.60
7562;DHT22;3822;48.784;9.174;2023-08-12T01:02:34;25.30;82.60
7562;DHT22;3822;48.784;9.174;2023-08-12T01:05:00;25.30;82.80
7562;DHT22;3822;48.784;9.174;2023-08-12T01:07:33;25.30;82.90
7562;DHT22;3822;48.784;9.174;2023-08-12T01:09:59;25.30;83.10
7562;DHT22;3822;48.784;9.174;2023-08-12T01:17:39;25.20;83.60
7562;DHT22;3822;48.784;9.174;2023-08-12T01:20:09;25.10;83.70
7562;DHT22;3822;48.784;9.174;2023-08-12T01:22:43;25.10;83.90
7562;DHT22;3822;48.784;9.174;2023-08-12T01:25:10;25.10;84.10
7562;DHT22;3822;48.784;9.174;2023-08-12T01:27:37;25.10;84.30
7562;DHT22;3822;48.784;9.174;2023-08-12T01:30:07;26.60;85.60
7562;DHT22;3822;48.784;9.174;2023-08-12T01:38:01;25.00;85.00
7562;DHT22;3822;48.784;9.174;2023-08-12T01:40:35;24.90;85.20
7562;DHT22;3822;48.784;9.174;2023-08-12T01:43:02;24.90;85.50
7562;DHT22;3822;48.784;9.174;2023-08-12T01:45:32;24.90;85.80
7562;DHT22;3822;48.784;9.174;2023-08-12T01:47:58;24.90;86.00
7562;DHT22;3822;48.784;9.174;2023-08-12T01:50:25;24.80;86.20
7562;DHT22;3822;48.784;9.174;2023-08-12T01:52:54;24.80;86.50
7562;DHT22;3822;48.784;9.174;2023-08-12T01:55:20;24.80;86.60
7562;DHT22;3822;48.784;9.174;2023-08-12T01:57:46;24.80;86.80
7562;DHT22;3822;48.784;9.174;2023-08-12T02:00:13;24.70;86.90
7562;DHT22;3822;48.784;9.174;2023-08-12T02:02:42;24.70;87.00
7562;DHT22;3822;48.784;9.174;2023-08-12T02:05:14;24.70;87.20
7562;DHT22;3822;48.784;9.174;2023-08-12T02:07:46;24.70;87.30
7562;DHT22;3822;48.784;9.174;2023-08-12T02:10:20;24.60;87.40
7562;DHT22;3822;48.784;9.174;2023-08-12T02:12:46;24.60;87.60
7562;DHT22;3822;48.784;9.174;2023-08-12T02:15:12;24.60;87.80
7562;DHT22;3822;48.784;9.174;2023-08-12T02:17:38;24.50;88.00
7562;DHT22;3822;48.784;9.174;2023-08-12T02:20:08;24.60;88.20
7562;DHT22;3822;48.784;9.174;2023-08-12T02:22:34;24.50;88.30
7562;DHT22;3822;48.784;9.174;2023-08-12T02:25:00;24.50;88.40
7562;DHT22;3822;48.784;9.174;2023-08-12T02:27:33;24.50;88.50
7562;DHT22;3822;48.784;9.174;2023-08-12T02:29:59;24.50;88.60
7562;DHT22;3822;48.784;9.174;2023-08-12T02:32:25;24.50;88.70
7562;DHT22;3822;48.784;9.174;2023-08-12T02:34:54;24.50;88.80
7562;DHT22;3822;48.784;9.174;2023-08-12T02:37:25;24.50;88.90
7562;DHT22;3822;48.784;9.174;2023-08-12T02:39:54;24.50;89.70
7562;DHT22;3822;48.784;9.174;2023-08-12T02:42:20;24.40;89.10
7562;DHT22;3822;48.784;9.174;2023-08-12T02:44:47;24.40;89.10
7562;DHT22;3822;48.784;9.174;2023-08-12T02:47:18;24.40;89.30
7562;DHT22;3822;48.784;9.174;2023-08-12T02:49:44;24.40;89.40
7562;DHT22;3822;48.784;9.174;2023-08-12T02:52:13;24.30;89.50
7562;DHT22;3822;48.784;9.174;2023-08-12T02:54:47;24.30;89.70
7562;DHT22;3822;48.784;9.174;2023-08-12T02:57:13;24.30;89.80
7562;DHT22;3822;48.784;9.174;2023-08-12T02:59:42;24.30;89.90
7562;DHT22;3822;48.784;9.174;2023-08-12T03:02:11;24.30;90.00
7562;DHT22;3822;48.784;9.174;2023-08-12T03:04:37;24.30;90.00
7562;DHT22;3822;48.784;9.174;2023-08-12T03:07:06;24.30;90.00
7562;DHT22;3822;48.784;9.174;2023-08-12T03:09:33;24.30;90.00
7562;DHT22;3822;48.784;9.174;2023-08-12T03:11:59;24.30;90.10
7562;DHT22;3822;48.784;9.174;2023-08-12T03:14:31;24.30;90.10
7562;DHT22;3822;48.784;9.174;2023-08-12T03:16:58;24.30;90.20
7562;DHT22;3822;48.784;9.174;2023-08-12T03:19:24;24.30;90.20
7562;DHT22;3822;48.784;9.174;2023-08-12T03:21:51;24.30;90.30
7562;DHT22;3822;48.784;9.174;2023-08-12T03:24:25;24.30;90.30
7562;DHT22;3822;48.784;9.174;2023-08-12T03:26:51;24.30;90.40
7562;DHT22;3822;48.784;9.174;2023-08-12T03:29:17;26.00;91.10
7562;DHT22;3822;48.784;9.174;2023-08-12T03:31:46;24.30;90.50
7562;DHT22;3822;48.784;9.174;2023-08-12T03:34:13;24.20;90.60
7562;DHT22;3822;48.784;9.174;2023-08-12T03:36:39;24.30;90.70
7562;DHT22;3822;48.784;9.174;2023-08-12T03:39:05;24.20;90.70
7562;DHT22;3822;48.784;9.174;2023-08-12T03:41:35;24.20;90.70
7562;DHT22;3822;48.784;9.174;2023-08-12T03:44:01;24.20;90.80
7562;DHT22;3822;48.784;9.174;2023-08-12T03:46:27;24.20;90.90
7562;DHT22;3822;48.784;9.174;2023-08-12T03:48:53;24.20;90.90
7562;DHT22;3822;48.784;9.174;2023-08-12T03:51:26;24.20;91.00
7562;DHT22;3822;48.784;9.174;2023-08-12T03:53:59;24.20;91.00
7562;DHT22;3822;48.784;9.174;2023-08-12T03:56:25;24.20;91.00
7562;DHT22;3822;48.784;9.174;2023-08-12T03:58:51;24.20;91.10
7562;DHT22;3822;48.784;9.174;2023-08-12T04:01:18;24.20;91.10
7562;DHT22;3822;48.784;9.174;2023-08-12T04:03:46;24.20;91.10
7562;DHT22;3822;48.784;9.174;2023-08-12T04:06:13;24.20;91.10
7562;DHT22;3822;48.784;9.174;2023-08-12T04:08:39;24.20;91.20
7562;DHT22;3822;48.784;9.174;2023-08-12T04:11:05;24.20;91.20
7562;DHT22;3822;48.784;9.174;2023-08-12T04:13:39;24.20;91.20
7562;DHT22;3822;48.784;9.174;2023-08-12T04:16:06;24.20;91.30
7562;DHT22;3822;48.784;9.174;2023-08-12T04:18:34;24.20;91.30
7562;DHT22;3822;48.784;9.174;2023-08-12T04:21:00;24.20;91.40
7562;DHT22;3822;48.784;9.174;2023-08-12T04:23:27;24.20;91.40
7562;DHT22;3822;48.784;9.174;2023-08-12T04:25:53;24.20;91.40
7562;DHT22;3822;48.784;9.174;2023-08-12T04:28:22;24.20;91.50
7562;DHT22;3822;48.784;9.174;2023-08-12T04:30:50;24.20;91.50
7562;DHT22;3822;48.784;9.174;2023-08-12T04:33:18;24.20;91.60
7562;DHT22;3822;48.784;9.174;2023-08-12T04:35:58;24.20;91.60
7562;DHT22;3822;48.784;9.174;2023-08-12T04:38:27;24.20;91.60
7562;DHT22;3822;48.784;9.174;2023-08-12T04:40:53;24.20;91.60
7562;DHT22;3822;48.784;9.174;2023-08-12T04:43:22;24.20;91.70
7562;DHT22;3822;48.784;9.174;2023-08-12T04:45:51;24.20;91.70
7562;DHT22;3822;48.784;9.174;2023-08-12T04:48:24;24.10;91.80
7562;DHT22;3822;48.784;9.174;2023-08-12T04:50:50;24.10;91.80
7562;DHT22;3822;48.784;9.174;2023-08-12T04:53:17;24.10;91.80
7562;DHT22;3822;48.784;9.174;2023-08-12T04:55:49;24.10;91.90
7562;DHT22;3822;48.784;9.174;2023-08-12T04:58:16;24.10;91.90
7562;DHT22;3822;48.784;9.174;2023-08-12T05:00:45;24.10;91.90
7562;DHT22;3822;48.784;9.174;2023-08-12T05:03:14;24.10;92.00
7562;DHT22;3822;48.784;9.174;2023-08-12T05:05:40;24.10;92.00
7562;DHT22;3822;48.784;9.174;2023-08-12T05:08:09;24.10;92.10
7562;DHT22;3822;48.784;9.174;2023-08-12T05:10:36;24.10;92.10
7562;DHT22;3822;48.784;9.174;2023-08-12T05:13:02;24.10;92.00
7562;DHT22;3822;48.784;9.174;2023-08-12T05:15:28;24.10;92.10
7562;DHT22;3822;48.784;9.174;2023-08-12T05:17:58;24.10;92.10
7562;DHT22;3822;48.784;9.174;2023-08-12T05:20:24;24.10;92.20
7562;DHT22;3822;48.784;9.174;2023-08-12T05:22:50;24.10;92.20
7562;DHT22;3822;48.784;9.174;2023-08-12T05:25:17;24.20;92.40
7562;DHT22;3822;48.784;9.174;2023-08-12T05:27:45;24.10;92.50
7562;DHT22;3822;48.784;9.174;2023-08-12T05:30:11;24.20;92.60
7562;DHT22;3822;48.784;9.174;2023-08-12T05:32:38;24.10;92.60
7562;DHT22;3822;48.784;9.174;2023-08-12T05:35:12;24.20;92.60
7562;DHT22;3822;48.784;9.174;2023-08-12T05:37:45;24.20;92.60
7562;DHT22;3822;48.784;9.174;2023-08-12T05:40:11;24.20;92.70
7562;DHT22;3822;48.784;9.174;2023-08-12T05:42:37;24.10;92.60
7562;DHT22;3822;48.784;9.174;2023-08-12T05:45:04;24.20;92.70
7562;DHT22;3822;48.784;9.174;2023-08-12T05:47:36;24.20;93.10
7562;DHT22;3822;48.784;9.174;2023-08-12T05:50:14;24.20;93.00
7562;DHT22;3822;48.784;9.174;2023-08-12T05:52:40;24.20;93.10
7562;DHT22;3822;48.784;9.174;2023-08-12T05:55:08;24.20;93.20
7562;DHT22;3822;48.784;9.174;2023-08-12T05:57:35;24.20;93.40
7562;DHT22;3822;48.784;9.174;2023-08-12T06:00:01;24.20;93.60
7562;DHT22;3822;48.784;9.174;2023-08-12T06:02:27;24.20;93.70
7562;DHT22;3822;48.784;9.174;2023-08-12T06:05:00;24.20;93.80
7562;DHT22;3822;48.784;9.174;2023-08-12T06:07:26;24.20;94.00
7562;DHT22;3822;48.784;9.174;2023-08-12T06:09:56;24.30;94.10
7562;DHT22;3822;48.784;9.174;2023-08-12T06:12:22;24.20;94.20
7562;DHT22;3822;48.784;9.174;2023-08-12T06:14:48;24.30;94.20
7562;DHT22;3822;48.784;9.174;2023-08-12T06:17:15;24.30;94.30
7562;DHT22;3822;48.784;9.174;2023-08-12T06:19:44;24.30;94.40
7562;DHT22;3822;48.784;9.174;2023-08-12T06:22:10;24.30;94.40
7562;DHT22;3822;48.784;9.174;2023-08-12T06:24:37;24.30;94.50
7562;DHT22;3822;48.784;9.174;2023-08-12T06:27:08;24.30;94.50
7562;DHT22;3822;48.784;9.174;2023-08-12T06:29:34;24.30;94.60
7562;DHT22;3822;48.784;9.174;2023-08-12T06:32:01;24.30;94.60
7562;DHT22;3822;48.784;9.174;2023-08-12T06:34:27;24.30;94.70
7562;DHT22;3822;48.784;9.174;2023-08-12T06:36:56;24.30;94.70
7562;DHT22;3822;48.784;9.174;2023-08-12T06:39:23;24.40;94.80
7562;DHT22;3822;48.784;9.174;2023-08-12T06:41:49;24.40;94.90
7562;DHT22;3822;48.784;9.174;2023-08-12T06:44:16;24.40;94.90
7562;DHT22;3822;48.784;9.174;2023-08-12T06:46:49;24.40;94.90
7562;DHT22;3822;48.784;9.174;2023-08-12T06:49:23;24.40;94.80
7562;DHT22;3822;48.784;9.174;2023-08-12T06:51:50;24.40;94.80
7562;DHT22;3822;48.784;9.174;2023-08-12T06:54:16;24.50;94.80
7562;DHT22;3822;48.784;9.174;2023-08-12T06:56:49;24.50;94.80
7562;DHT22;3822;48.784;9.174;2023-08-12T06:59:15;24.60;94.80
7562;DHT22;3822;48.784;9.174;2023-08-12T07:01:47;24.70;94.70
7562;DHT22;3822;48.784;9.174;2023-08-12T07:04:13;24.70;94.60
7562;DHT22;3822;48.784;9.174;2023-08-12T07:06:40;24.80;94.60
7562;DHT22;3822;48.784;9.174;2023-08-12T07:09:09;24.80;94.50
7562;DHT22;3822;48.784;9.174;2023-08-12T07:11:35;24.90;94.40
7562;DHT22;3822;48.784;9.174;2023-08-12T07:14:01;24.90;94.30
7562;DHT22;3822;48.784;9.174;2023-08-12T07:16:28;25.00;94.30
7562;DHT22;3822;48.784;9.174;2023-08-12T07:18:59;25.10;94.20
7562;DHT22;3822;48.784;9.174;2023-08-12T07:21:26;25.20;94.10
7562;DHT22;3822;48.784;9.174;2023-08-12T07:23:56;25.30;93.90
7562;DHT22;3822;48.784;9.174;2023-08-12T07:26:24;25.30;93.70
7562;DHT22;3822;48.784;9.174;2023-08-12T07:28:51;25.40;93.70
7562;DHT22;3822;48.784;9.174;2023-08-12T07:31:20;25.40;93.70
7562;DHT22;3822;48.784;9.174;2023-08-12T07:33:46;25.50;93.60
7562;DHT22;3822;48.784;9.174;2023-08-12T07:36:12;25.60;93.60
7562;DHT22;3822;48.784;9.174;2023-08-12T07:38:39;25.70;93.60
7562;DHT22;3822;48.784;9.174;2023-08-12T07:41:08;25.80;93.50
7562;DHT22;3822;48.784;9.174;2023-08-12T07:43:35;25.90;93.50
7562;DHT22;3822;48.784;9.174;2023-08-12T07:46:01;26.00;93.40
7562;DHT22;3822;48.784;9.174;2023-08-12T07:48:33;26.00;93.40
7562;DHT22;3822;48.784;9.174;2023-08-12T07:50:59;26.10;93.40
7562;DHT22;3822;48.784;9.174;2023-08-12T07:53:28;26.20;93.40
7562;DHT22;3822;48.784;9.174;2023-08-12T07:55:57;26.20;93.30
7562;DHT22;3822;48.784;9.174;2023-08-12T07:58:23;26.30;93.30
7562;DHT22;3822;48.784;9.174;2023-08-12T08:00:52;26.30;93.20
7562;DHT22;3822;48.784;9.174;2023-08-12T08:03:21;26.40;93.10
7562;DHT22;3822;48.784;9.174;2023-08-12T08:05:47;26.50;93.00
7562;DHT22;3822;48.784;9.174;2023-08-12T08:08:14;26.60;92.80
7562;DHT22;3822;48.784;9.174;2023-08-12T08:10:40;26.70;92.60
7562;DHT22;3822;48.784;9.174;2023-08-12T08:13:09;26.70;92.40
7562;DHT22;3822;48.784;9.174;2023-08-12T08:15:37;26.70;92.20
7562;DHT22;3822;48.784;9.174;2023-08-12T08:18:04;26.80;92.10
7562;DHT22;3822;48.784;9.174;2023-08-12T08:20:33;26.90;92.40
7562;DHT22;3822;48.784;9.174;2023-08-12T08:23:01;27.00;92.00
7562;DHT22;3822;48.784;9.174;2023-08-12T08:25:33;27.00;91.90
7562;DHT22;3822;48.784;9.174;2023-08-12T08:27:59;27.10;91.60
7562;DHT22;3822;48.784;9.174;2023-08-12T08:30:26;27.10;91.50
7562;DHT22;3822;48.784;9.174;2023-08-12T08:32:52;27.20;91.30
7562;DHT22;3822;48.784;9.174;2023-08-12T08:35:24;27.30;91.20
7562;DHT22;3822;48.784;9.174;2023-08-12T08:37:51;27.30;91.00
7562;DHT22;3822;48.784;9.174;2023-08-12T08:40:23;27.40;90.90
7562;DHT22;3822;48.784;9.174;2023-08-12T08:42:51;27.50;90.90
7562;DHT22;3822;48.784;9.174;2023-08-12T08:45:21;27.50;90.70
7562;DHT22;3822;48.784;9.174;2023-08-12T08:47:49;27.60;90.70
7562;DHT22;3822;48.784;9.174;2023-08-12T08:50:23;27.70;90.60
7562;DHT22;3822;48.784;9.174;2023-08-12T08:52:50;27.70;90.40
7562;DHT22;3822;48.784;9.174;2023-08-12T08:55:21;27.80;90.20
7562;DHT22;3822;48.784;9.174;2023-08-12T08:57:48;27.80;90.10
7562;DHT22;3822;48.784;9.174;2023-08-12T09:00:17;27.80;90.10
7562;DHT22;3822;48.784;9.174;2023-08-12T09:02:51;27.90;90.00
7562;DHT22;3822;48.784;9.174;2023-08-12T09:05:21;27.90;89.90
7562;DHT22;3822;48.784;9.174;2023-08-12T09:07:48;28.00;89.90
7562;DHT22;3822;48.784;9.174;2023-08-12T09:10:14;28.10;89.70
7562;DHT22;3822;48.784;9.174;2023-08-12T09:12:45;28.10;89.60
7562;DHT22;3822;48.784;9.174;2023-08-12T09:15:12;28.20;89.50
7562;DHT22;3822;48.784;9.174;2023-08-12T09:17:41;28.20;89.40
7562;DHT22;3822;48.784;9.174;2023-08-12T09:20:16;28.30;89.00
7562;DHT22;3822;48.784;9.174;2023-08-12T09:22:42;28.40;89.00
7562;DHT22;3822;48.784;9.174;2023-08-12T09:25:13;28.40;88.30
7562;DHT22;3822;48.784;9.174;2023-08-12T09:27:41;28.40;87.90
7562;DHT22;3822;48.784;9.174;2023-08-12T09:30:13;28.50;87.70
7562;DHT22;3822;48.784;9.174;2023-08-12T09:32:39;28.60;87.50
7562;DHT22;3822;48.784;9.174;2023-08-12T09:35:15;28.60;87.30
7562;DHT22;3822;48.784;9.174;2023-08-12T09:37:42;28.70;87.20
7562;DHT22;3822;48.784;9.174;2023-08-12T09:40:13;28.80;87.00
7562;DHT22;3822;48.784;9.174;2023-08-12T09:42:44;28.90;86.70
7562;DHT22;3822;48.784;9.174;2023-08-12T09:45:13;28.90;86.30
7562;DHT22;3822;48.784;9.174;2023-08-12T09:47:42;29.00;85.30
7562;DHT22;3822;48.784;9.174;2023-08-12T09:50:09;29.10;85.10
7562;DHT22;3822;48.784;9.174;2023-08-12T09:52:37;29.20;85.00
7562;DHT22;3822;48.784;9.174;2023-08-12T09:55:04;29.30;84.80
7562;DHT22;3822;48.784;9.174;2023-08-12T09:57:31;29.40;84.50
7562;DHT22;3822;48.784;9.174;2023-08-12T10:00:04;29.50;84.00
7562;DHT22;3822;48.784;9.174;2023-08-12T10:02:39;29.60;83.40
7562;DHT22;3822;48.784;9.174;2023-08-12T10:05:06;29.60;82.60
7562;DHT22;3822;48.784;9.174;2023-08-12T10:07:32;29.70;82.00
7562;DHT22;3822;48.784;9.174;2023-08-12T10:10:02;29.70;81.80
7562;DHT22;3822;48.784;9.174;2023-08-12T10:12:29;29.80;83.00
7562;DHT22;3822;48.784;9.174;2023-08-12T10:15:03;29.80;84.40
7562;DHT22;3822;48.784;9.174;2023-08-12T10:17:31;29.80;84.30
7562;DHT22;3822;48.784;9.174;2023-08-12T10:20:00;29.80;84.30
7562;DHT22;3822;48.784;9.174;2023-08-12T10:22:30;29.80;84.70
7562;DHT22;3822;48.784;9.174;2023-08-12T10:24:58;29.90;85.40
7562;DHT22;3822;48.784;9.174;2023-08-12T10:27:25;29.90;86.00
7562;DHT22;3822;48.784;9.174;2023-08-12T10:30:06;29.90;86.30
7562;DHT22;3822;48.784;9.174;2023-08-12T10:32:39;29.90;86.10
7562;DHT22;3822;48.784;9.174;2023-08-12T10:35:08;29.90;85.80
7562;DHT22;3822;48.784;9.174;2023-08-12T10:37:37;29.90;85.90
7562;DHT22;3822;48.784;9.174;2023-08-12T10:43:16;30.00;86.20
7562;DHT22;3822;48.784;9.174;2023-08-12T11:01:52;30.20;81.80
7562;DHT22;3822;48.784;9.174;2023-08-12T11:04:19;30.30;81.30
7562;DHT22;3822;48.784;9.174;2023-08-12T11:06:47;30.30;80.30
7562;DHT22;3822;48.784;9.174;2023-08-12T11:09:13;30.40;79.70
7562;DHT22;3822;48.784;9.174;2023-08-12T11:11:41;30.50;79.40
7562;DHT22;3822;48.784;9.174;2023-08-12T11:14:16;30.50;77.90
7562;DHT22;3822;48.784;9.174;2023-08-12T11:16:43;30.60;77.60
7562;DHT22;3822;48.784;9.174;2023-08-12T11:19:09;30.70;76.50
7562;DHT22;3822;48.784;9.174;2023-08-12T11:21:37;30.70;76.10
7562;DHT22;3822;48.784;9.174;2023-08-12T11:24:04;30.70;75.60
7562;DHT22;3822;48.784;9.174;2023-08-12T11:26:31;30.80;74.90
7562;DHT22;3822;48.784;9.174;2023-08-12T11:28:59;30.80;74.00
7562;DHT22;3822;48.784;9.174;2023-08-12T11:31:27;30.90;73.50
7562;DHT22;3822;48.784;9.174;2023-08-12T11:33:53;30.90;72.80
7562;DHT22;3822;48.784;9.174;2023-08-12T11:36:20;31.00;73.30
7562;DHT22;3822;48.784;9.174;2023-08-12T11:38:46;31.00;72.90
7562;DHT22;3822;48.784;9.174;2023-08-12T11:41:13;31.00;73.00
7562;DHT22;3822;48.784;9.174;2023-08-12T11:43:39;31.10;71.90
7562;DHT22;3822;48.784;9.174;2023-08-12T11:46:05;31.10;72.10
7562;DHT22;3822;48.784;9.174;2023-08-12T11:48:32;31.20;72.30
7562;DHT22;3822;48.784;9.174;2023-08-12T11:50:58;31.30;72.30
7562;DHT22;3822;48.784;9.174;2023-08-12T11:53:27;31.40;71.80
7562;DHT22;3822;48.784;9.174;2023-08-12T11:55:54;31.50;71.70
7562;DHT22;3822;48.784;9.174;2023-08-12T11:58:23;31.60;71.40
7562;DHT22;3822;48.784;9.174;2023-08-12T12:00:51;31.70;70.80
7562;DHT22;3822;48.784;9.174;2023-08-12T12:03:18;31.70;70.40
7562;DHT22;3822;48.784;9.174;2023-08-12T12:05:45;31.70;70.50
7562;DHT22;3822;48.784;9.174;2023-08-12T12:08:13;31.70;72.10
7562;DHT22;3822;48.784;9.174;2023-08-12T12:10:39;31.70;75.00
7562;DHT22;3822;48.784;9.174;2023-08-12T12:13:09;31.50;77.10
7562;DHT22;3822;48.784;9.174;2023-08-12T12:15:43;31.30;78.10
7562;DHT22;3822;48.784;9.174;2023-08-12T12:18:12;31.10;79.80
7562;DHT22;3822;48.784;9.174;2023-08-12T12:20:56;30.90;80.80
7562;DHT22;3822;48.784;9.174;2023-08-12T12:23:27;30.60;81.00
7562;DHT22;3822;48.784;9.174;2023-08-12T12:26:05;30.40;82.40
7562;DHT22;3822;48.784;9.174;2023-08-12T12:28:31;30.00;83.00
7562;DHT22;3822;48.784;9.174;2023-08-12T12:31:00;29.80;84.50
7562;DHT22;3822;48.784;9.174;2023-08-12T12:33:26;29.70;86.00
7562;DHT22;3822;48.784;9.174;2023-08-12T12:35:53;29.40;88.00
7562;DHT22;3822;48.784;9.174;2023-08-12T12:38:19;29.20;88.80
7562;DHT22;3822;48.784;9.174;2023-08-12T12:40:48;29.00;90.00
7562;DHT22;3822;48.784;9.174;2023-08-12T12:43:21;28.80;90.50
7562;DHT22;3822;48.784;9.174;2023-08-12T12:45:53;28.60;90.90
7562;DHT22;3822;48.784;9.174;2023-08-12T12:48:22;28.40;91.60
7562;DHT22;3822;48.784;9.174;2023-08-12T12:50:48;28.20;92.00
7562;DHT22;3822;48.784;9.174;2023-08-12T12:53:14;27.90;92.10
7562;DHT22;3822;48.784;9.174;2023-08-12T12:55:43;27.80;92.30
7562;DHT22;3822;48.784;9.174;2023-08-12T12:58:14;27.70;92.60
7562;DHT22;3822;48.784;9.174;2023-08-12T13:00:40;27.60;92.70
7562;DHT22;3822;48.784;9.174;2023-08-12T13:03:07;27.50;93.00
7562;DHT22;3822;48.784;9.174;2023-08-12T13:05:33;27.50;93.30
7562;DHT22;3822;48.784;9.174;2023-08-12T13:07:59;27.40;93.60
7562;DHT22;3822;48.784;9.174;2023-08-12T13:10:26;27.40;93.80
7562;DHT22;3822;48.784;9.174;2023-08-12T13:12:55;27.40;94.00
7562;DHT22;3822;48.784;9.174;2023-08-12T13:15:21;27.30;94.10
7562;DHT22;3822;48.784;9.174;2023-08-12T13:17:52;27.40;94.40
7562;DHT22;3822;48.784;9.174;2023-08-12T13:20:18;27.30;94.60
7562;DHT22;3822;48.784;9.174;2023-08-12T13:22:45;27.30;94.70
7562;DHT22;3822;48.784;9.174;2023-08-12T13:25:15;27.30;94.90
7562;DHT22;3822;48.784;9.174;2023-08-12T13:27:42;27.30;95.10
7562;DHT22;3822;48.784;9.174;2023-08-12T13:30:09;27.30;95.30
7562;DHT22;3822;48.784;9.174;2023-08-12T13:32:38;27.30;95.50
7562;DHT22;3822;48.784;9.174;2023-08-12T13:35:04;27.30;95.70
7562;DHT22;3822;48.784;9.174;2023-08-12T13:37:37;27.30;96.00
7562;DHT22;3822;48.784;9.174;2023-08-12T13:40:03;27.30;96.10
7562;DHT22;3822;48.784;9.174;2023-08-12T13:42:30;27.40;96.30
7562;DHT22;3822;48.784;9.174;2023-08-12T13:44:58;27.40;96.40
7562;DHT22;3822;48.784;9.174;2023-08-12T13:47:25;27.40;96.70
7562;DHT22;3822;48.784;9.174;2023-08-12T13:49:53;27.40;96.40
7562;DHT22;3822;48.784;9.174;2023-08-12T13:52:19;27.40;96.40
7562;DHT22;3822;48.784;9.174;2023-08-12T13:54:46;27.50;96.60
7562;DHT22;3822;48.784;9.174;2023-08-12T13:57:12;27.50;96.60
7562;DHT22;3822;48.784;9.174;2023-08-12T13:59:40;27.60;96.60
7562;DHT22;3822;48.784;9.174;2023-08-12T14:02:10;27.70;96.70
7562;DHT22;3822;48.784;9.174;2023-08-12T14:04:36;27.70;96.80
7562;DHT22;3822;48.784;9.174;2023-08-12T14:07:06;27.80;96.90
7562;DHT22;3822;48.784;9.174;2023-08-12T14:09:34;27.90;96.70
7562;DHT22;3822;48.784;9.174;2023-08-12T14:12:00;28.10;96.50
7562;DHT22;3822;48.784;9.174;2023-08-12T14:14:27;28.20;96.50
7562;DHT22;3822;48.784;9.174;2023-08-12T14:16:54;28.40;96.40
7562;DHT22;3822;48.784;9.174;2023-08-12T14:19:20;28.60;96.50
7562;DHT22;3822;48.784;9.174;2023-08-12T14:21:47;28.70;96.60
7562;DHT22;3822;48.784;9.174;2023-08-12T14:24:13;28.80;96.50
7562;DHT22;3822;48.784;9.174;2023-08-12T14:26:40;29.00;96.50
7562;DHT22;3822;48.784;9.174;2023-08-12T14:29:06;29.20;96.20
7562;DHT22;3822;48.784;9.174;2023-08-12T14:31:33;29.40;95.70
7562;DHT22;3822;48.784;9.174;2023-08-12T14:34:00;29.60;95.10
7562;DHT22;3822;48.784;9.174;2023-08-12T14:36:27;29.80;94.70
7562;DHT22;3822;48.784;9.174;2023-08-12T14:38:53;29.90;94.20
7562;DHT22;3822;48.784;9.174;2023-08-12T14:41:20;30.20;93.70
7562;DHT22;3822;48.784;9.174;2023-08-12T14:43:46;30.30;93.40
7562;DHT22;3822;48.784;9.174;2023-08-12T14:46:15;30.50;93.10
7562;DHT22;3822;48.784;9.174;2023-08-12T14:48:41;30.70;92.90
7562;DHT22;3822;48.784;9.174;2023-08-12T14:51:12;30.90;92.30
7562;DHT22;3822;48.784;9.174;2023-08-12T14:53:38;31.10;91.20
7562;DHT22;3822;48.784;9.174;2023-08-12T14:56:04;31.20;90.80
7562;DHT22;3822;48.784;9.174;2023-08-12T14:58:31;31.30;90.40
7562;DHT22;3822;48.784;9.174;2023-08-12T15:00:57;31.50;89.50
7562;DHT22;3822;48.784;9.174;2023-08-12T15:03:23;31.70;88.80
7562;DHT22;3822;48.784;9.174;2023-08-12T15:05:58;31.80;88.00
7562;DHT22;3822;48.784;9.174;2023-08-12T15:08:27;31.90;86.90
7562;DHT22;3822;48.784;9.174;2023-08-12T15:10:54;32.10;86.40
7562;DHT22;3822;48.784;9.174;2023-08-12T15:13:21;32.20;85.20
7562;DHT22;3822;48.784;9.174;2023-08-12T15:15:48;32.30;84.00
7562;DHT22;3822;48.784;9.174;2023-08-12T15:18:17;32.50;82.60
7562;DHT22;3822;48.784;9.174;2023-08-12T15:20:44;32.60;81.50
7562;DHT22;3822;48.784;9.174;2023-08-12T15:23:10;32.60;80.00
7562;DHT22;3822;48.784;9.174;2023-08-12T15:25:37;32.60;79.10
7562;DHT22;3822;48.784;9.174;2023-08-12T15:28:05;32.60;78.90
7562;DHT22;3822;48.784;9.174;2023-08-12T15:30:32;32.60;78.70
7562;DHT22;3822;48.784;9.174;2023-08-12T15:33:02;32.60;78.80
7562;DHT22;3822;48.784;9.174;2023-08-12T15:35:28;32.60;78.10
7562;DHT22;3822;48.784;9.174;2023-08-12T15:37:54;32.50;78.10
7562;DHT22;3822;48.784;9.174;2023-08-12T15:40:21;32.40;78.10
7562;DHT22;3822;48.784;9.174;2023-08-12T15:42:47;32.40;77.90
7562;DHT22;3822;48.784;9.174;2023-08-12T15:45:15;32.30;77.90
7562;DHT22;3822;48.784;9.174;2023-08-12T15:47:42;32.20;77.10
7562;DHT22;3822;48.784;9.174;2023-08-12T15:50:08;32.10;77.50
7562;DHT22;3822;48.784;9.174;2023-08-12T15:52:35;32.00;77.70
7562;DHT22;3822;48.784;9.174;2023-08-12T15:55:04;31.90;77.90
7562;DHT22;3822;48.784;9.174;2023-08-12T15:57:30;31.80;78.10
7562;DHT22;3822;48.784;9.174;2023-08-12T15:59:58;31.70;78.50
7562;DHT22;3822;48.784;9.174;2023-08-12T16:02:24;31.70;79.00
7562;DHT22;3822;48.784;9.174;2023-08-12T16:04:50;31.70;79.60
7562;DHT22;3822;48.784;9.174;2023-08-12T16:07:19;31.60;79.80
7562;DHT22;3822;48.784;9.174;2023-08-12T16:09:46;31.50;79.70
7562;DHT22;3822;48.784;9.174;2023-08-12T16:12:12;31.50;80.00
7562;DHT22;3822;48.784;9.174;2023-08-12T16:14:45;31.40;80.90
7562;DHT22;3822;48.784;9.174;2023-08-12T16:17:14;31.30;81.90
7562;DHT22;3822;48.784;9.174;2023-08-12T16:19:40;31.20;83.00
7562;DHT22;3822;48.784;9.174;2023-08-12T16:22:11;31.10;83.70
7562;DHT22;3822;48.784;9.174;2023-08-12T16:24:38;31.00;85.30
7562;DHT22;3822;48.784;9.174;2023-08-12T16:27:05;30.90;86.70
7562;DHT22;3822;48.784;9.174;2023-08-12T16:29:34;30.80;88.30
7562;DHT22;3822;48.784;9.174;2023-08-12T16:32:00;30.70;89.70
7562;DHT22;3822;48.784;9.174;2023-08-12T16:34:26;30.50;90.30
7562;DHT22;3822;48.784;9.174;2023-08-12T16:36:52;30.40;90.90